sensor_id;sensor_type;location;lat;lon;timestamp;pressure;altitude;pressure_sealevel;temperature
65738;BMP280;52478;51.844;6.582;2023-11-21T00:01:05;100745.84;;;22.12
65738;BMP280;52478;51.844;6.582;2023-11-21T00:03:34;100751.94;;;22.10
65738;BMP280;52478;51.844;6.582;2023-11-21T00:06:02;100746.38;;;22.10
65738;BMP280;52478;51.844;6.582;2023-11-21T00:08:28;100749.69;;;22.09
65738;BMP280;52478;51.844;6.582;2023-11-21T00:10:55;100752.69;;;22.11
65738;BMP280;52478;51.844;6.582;2023-11-21T00:13:21;100750.44;;;22.09
65738;BMP280;52478;51.844;6.582;2023-11-21T00:15:48;100753.75;;;22.08
65738;BMP280;52478;51.844;6.582;2023-11-21T00:18:14;100760.09;;;22.08
65738;BMP280;52478;51.844;6.582;2023-11-21T00:20:41;100754.28;;;22.06
65738;BMP280;52478;51.844;6.582;2023-11-21T00:23:09;100764.16;;;22.07
65738;BMP280;52478;51.844;6.582;2023-11-21T00:25:35;100762.63;;;22.06
65738;BMP280;52478;51.844;6.582;2023-11-21T00:28:02;100768.22;;;22.06
65738;BMP280;52478;51.844;6.582;2023-11-21T00:30:29;100754.81;;;22.05
65738;BMP280;52478;51.844;6.582;2023-11-21T00:32:56;100760.41;;;22.05
65738;BMP280;52478;51.844;6.582;2023-11-21T00:35:22;100758.88;;;22.04
65738;BMP280;52478;51.844;6.582;2023-11-21T00:37:48;100759.66;;;22.04
65738;BMP280;52478;51.844;6.582;2023-11-21T00:40:17;100751.03;;;22.02
65738;BMP280;52478;51.844;6.582;2023-11-21T00:42:46;100757.91;;;22.01
65738;BMP280;52478;51.844;6.582;2023-11-21T00:45:13;100760.69;;;22.01
65738;BMP280;52478;51.844;6.582;2023-11-21T00:47:39;100767.03;;;22.02
65738;BMP280;52478;51.844;6.582;2023-11-21T00:50:06;100766.25;;;22.01
65738;BMP280;52478;51.844;6.582;2023-11-21T00:52:33;100765.53;;;22.01
65738;BMP280;52478;51.844;6.582;2023-11-21T00:55:00;100764.00;;;22.00
65738;BMP280;52478;51.844;6.582;2023-11-21T00:57:28;100765.53;;;22.01
65738;BMP280;52478;51.844;6.582;2023-11-21T00:59:54;100763.28;;;21.99
65738;BMP280;52478;51.844;6.582;2023-11-21T01:02:21;100770.88;;;21.99
65738;BMP280;52478;51.844;6.582;2023-11-21T01:04:47;100784.81;;;21.99
65738;BMP280;52478;51.844;6.582;2023-11-21T01:07:14;100783.31;;;21.98
65738;BMP280;52478;51.844;6.582;2023-11-21T01:09:40;100786.81;;;21.98
65738;BMP280;52478;51.844;6.582;2023-11-21T01:12:07;100783.31;;;21.98
65738;BMP280;52478;51.844;6.582;2023-11-21T01:14:35;100793.69;;;21.97
65738;BMP280;52478;51.844;6.582;2023-11-21T01:17:02;100793.69;;;21.97
65738;BMP280;52478;51.844;6.582;2023-11-21T01:19:29;100799.25;;;21.97
65738;BMP280;52478;51.844;6.582;2023-11-21T01:21:56;100799.25;;;21.97
65738;BMP280;52478;51.844;6.582;2023-11-21T01:24:23;100803.34;;;21.96
65738;BMP280;52478;51.844;6.582;2023-11-21T01:26:50;100808.16;;;21.96
65738;BMP280;52478;51.844;6.582;2023-11-21T01:29:17;100806.66;;;21.95
65738;BMP280;52478;51.844;6.582;2023-11-21T01:31:44;100807.44;;;21.95
65738;BMP280;52478;51.844;6.582;2023-11-21T01:34:11;100810.22;;;21.95
65738;BMP280;52478;51.844;6.582;2023-11-21T01:36:37;100815.78;;;21.95
65738;BMP280;52478;51.844;6.582;2023-11-21T01:39:04;100813.00;;;21.95
65738;BMP280;52478;51.844;6.582;2023-11-21T01:41:33;100817.81;;;21.95
65738;BMP280;52478;51.844;6.582;2023-11-21T01:44:00;100807.44;;;21.95
65738;BMP280;52478;51.844;6.582;2023-11-21T01:46:27;100824.16;;;21.95
65738;BMP280;52478;51.844;6.582;2023-11-21T01:48:55;100823.38;;;21.95
65738;BMP280;52478;51.844;6.582;2023-11-21T01:51:22;100826.94;;;21.95
65738;BMP280;52478;51.844;6.582;2023-11-21T01:53:49;100822.63;;;21.94
65738;BMP280;52478;51.844;6.582;2023-11-21T01:56:16;100821.88;;;21.94
65738;BMP280;52478;51.844;6.582;2023-11-21T01:58:43;100839.38;;;21.94
65738;BMP280;52478;51.844;6.582;2023-11-21T02:01:12;100835.06;;;21.93
65738;BMP280;52478;51.844;6.582;2023-11-21T02:03:39;100832.28;;;21.93
65738;BMP280;52478;51.844;6.582;2023-11-21T02:06:07;100832.78;;;21.92
65738;BMP280;52478;51.844;6.582;2023-11-21T02:08:35;100825.19;;;21.92
65738;BMP280;52478;51.844;6.582;2023-11-21T02:11:03;100825.19;;;21.92
65738;BMP280;52478;51.844;6.582;2023-11-21T02:13:29;100826.47;;;21.91
65738;BMP280;52478;51.844;6.582;2023-11-21T02:15:56;100830.00;;;21.92
65738;BMP280;52478;51.844;6.582;2023-11-21T02:18:23;100834.84;;;21.91
65738;BMP280;52478;51.844;6.582;2023-11-21T02:20:49;100831.28;;;21.91
65738;BMP280;52478;51.844;6.582;2023-11-21T02:23:17;100832.59;;;21.90
65738;BMP280;52478;51.844;6.582;2023-11-21T02:25:44;100834.06;;;21.91
65738;BMP280;52478;51.844;6.582;2023-11-21T02:28:11;100840.19;;;21.89
65738;BMP280;52478;51.844;6.582;2023-11-21T02:30:40;100833.34;;;21.90
65738;BMP280;52478;51.844;6.582;2023-11-21T02:33:07;100833.34;;;21.90
65738;BMP280;52478;51.844;6.582;2023-11-21T02:35:34;100848.53;;;21.89
65738;BMP280;52478;51.844;6.582;2023-11-21T02:38:01;100842.97;;;21.89
65738;BMP280;52478;51.844;6.582;2023-11-21T02:40:29;100842.97;;;21.89
65738;BMP280;52478;51.844;6.582;2023-11-21T02:42:55;100848.53;;;21.89
65738;BMP280;52478;51.844;6.582;2023-11-21T02:45:24;100854.88;;;21.90
65738;BMP280;52478;51.844;6.582;2023-11-21T02:47:51;100847.81;;;21.89
65738;BMP280;52478;51.844;6.582;2023-11-21T02:50:19;100853.38;;;21.89
65738;BMP280;52478;51.844;6.582;2023-11-21T02:52:45;100854.13;;;21.89
65738;BMP280;52478;51.844;6.582;2023-11-21T02:55:12;100847.56;;;21.87
65738;BMP280;52478;51.844;6.582;2023-11-21T02:57:40;100846.31;;;21.88
65738;BMP280;52478;51.844;6.582;2023-11-21T03:00:07;100848.31;;;21.87
65738;BMP280;52478;51.844;6.582;2023-11-21T03:02:34;100858.19;;;21.88
65738;BMP280;52478;51.844;6.582;2023-11-21T03:05:02;100858.69;;;21.87
65738;BMP280;52478;51.844;6.582;2023-11-21T03:07:30;100862.25;;;21.87
65738;BMP280;52478;51.844;6.582;2023-11-21T03:09:56;100867.06;;;21.87
65738;BMP280;52478;51.844;6.582;2023-11-21T03:12:23;100865.56;;;21.86
65738;BMP280;52478;51.844;6.582;2023-11-21T03:14:51;100871.91;;;21.86
65738;BMP280;52478;51.844;6.582;2023-11-21T03:17:19;100867.06;;;21.87
65738;BMP280;52478;51.844;6.582;2023-11-21T03:19:45;100872.63;;;21.87
65738;BMP280;52478;51.844;6.582;2023-11-21T03:22:11;100871.16;;;21.86
65738;BMP280;52478;51.844;6.582;2023-11-21T03:24:38;100874.69;;;21.86
65738;BMP280;52478;51.844;6.582;2023-11-21T03:27:05;100880.03;;;21.84
65738;BMP280;52478;51.844;6.582;2023-11-21T03:29:31;100881.56;;;21.85
65738;BMP280;52478;51.844;6.582;2023-11-21T03:31:59;100884.34;;;21.85
65738;BMP280;52478;51.844;6.582;2023-11-21T03:34:27;100884.34;;;21.85
65738;BMP280;52478;51.844;6.582;2023-11-21T03:36:54;100876.72;;;21.86
65738;BMP280;52478;51.844;6.582;2023-11-21T03:39:21;100882.56;;;21.82
65738;BMP280;52478;51.844;6.582;2023-11-21T03:41:48;100880.03;;;21.84
65738;BMP280;52478;51.844;6.582;2023-11-21T03:44:14;100885.59;;;21.84
65738;BMP280;52478;51.844;6.582;2023-11-21T03:46:41;100895.03;;;21.81
65738;BMP280;52478;51.844;6.582;2023-11-21T03:49:09;100892.44;;;21.83
65738;BMP280;52478;51.844;6.582;2023-11-21T03:51:36;100890.94;;;21.82
65738;BMP280;52478;51.844;6.582;2023-11-21T03:54:03;100894.50;;;21.83
65738;BMP280;52478;51.844;6.582;2023-11-21T03:56:30;100893.72;;;21.82
65738;BMP280;52478;51.844;6.582;2023-11-21T03:58:56;100893.00;;;21.82
65738;BMP280;52478;51.844;6.582;2023-11-21T04:01:23;100895.03;;;21.81
65738;BMP280;52478;51.844;6.582;2023-11-21T04:03:50;100890.72;;;21.80
65738;BMP280;52478;51.844;6.582;2023-11-21T04:06:18;100892.25;;;21.81
65738;BMP280;52478;51.844;6.582;2023-11-21T04:08:44;100891.47;;;21.81
65738;BMP280;52478;51.844;6.582;2023-11-21T04:11:11;100887.19;;;21.80
65738;BMP280;52478;51.844;6.582;2023-11-21T04:13:38;100890.72;;;21.80
65738;BMP280;52478;51.844;6.582;2023-11-21T04:16:05;100893.50;;;21.80
65738;BMP280;52478;51.844;6.582;2023-11-21T04:18:32;100890.72;;;21.80
65738;BMP280;52478;51.844;6.582;2023-11-21T04:20:59;100899.84;;;21.81
65738;BMP280;52478;51.844;6.582;2023-11-21T04:23:29;100904.66;;;21.80
65738;BMP280;52478;51.844;6.582;2023-11-21T04:25:55;100911.75;;;21.81
65738;BMP280;52478;51.844;6.582;2023-11-21T04:28:22;100920.13;;;21.81
65738;BMP280;52478;51.844;6.582;2023-11-21T04:30:49;100919.34;;;21.81
65738;BMP280;52478;51.844;6.582;2023-11-21T04:33:16;100922.13;;;21.81
65738;BMP280;52478;51.844;6.582;2023-11-21T04:35:42;100925.69;;;21.81
65738;BMP280;52478;51.844;6.582;2023-11-21T04:38:09;100919.34;;;21.81
65738;BMP280;52478;51.844;6.582;2023-11-21T04:40:37;100920.13;;;21.81
65738;BMP280;52478;51.844;6.582;2023-11-21T04:43:03;100928.47;;;21.81
65738;BMP280;52478;51.844;6.582;2023-11-21T04:45:30;100928.22;;;21.79
65738;BMP280;52478;51.844;6.582;2023-11-21T04:47:56;100936.84;;;21.81
65738;BMP280;52478;51.844;6.582;2023-11-21T04:50:23;100935.28;;;21.80
65738;BMP280;52478;51.844;6.582;2023-11-21T04:52:51;100935.28;;;21.80
65738;BMP280;52478;51.844;6.582;2023-11-21T04:55:17;100928.22;;;21.79
65738;BMP280;52478;51.844;6.582;2023-11-21T04:57:46;100933.78;;;21.79
65738;BMP280;52478;51.844;6.582;2023-11-21T05:00:13;100938.63;;;21.79
65738;BMP280;52478;51.844;6.582;2023-11-21T05:02:41;100938.63;;;21.79
65738;BMP280;52478;51.844;6.582;2023-11-21T05:05:09;100946.25;;;21.78
65738;BMP280;52478;51.844;6.582;2023-11-21T05:07:36;100954.59;;;21.78
65738;BMP280;52478;51.844;6.582;2023-11-21T05:10:04;100960.91;;;21.79
65738;BMP280;52478;51.844;6.582;2023-11-21T05:12:33;100960.19;;;21.78
65738;BMP280;52478;51.844;6.582;2023-11-21T05:15:04;100960.19;;;21.78
65738;BMP280;52478;51.844;6.582;2023-11-21T05:17:32;100973.34;;;21.78
65738;BMP280;52478;51.844;6.582;2023-11-21T05:19:59;100972.34;;;21.75
65738;BMP280;52478;51.844;6.582;2023-11-21T05:22:27;100976.88;;;21.78
65738;BMP280;52478;51.844;6.582;2023-11-21T05:24:53;100977.41;;;21.77
65738;BMP280;52478;51.844;6.582;2023-11-21T05:27:20;100983.75;;;21.77
65738;BMP280;52478;51.844;6.582;2023-11-21T05:29:46;100986.53;;;21.77
65738;BMP280;52478;51.844;6.582;2023-11-21T05:32:14;100987.81;;;21.76
65738;BMP280;52478;51.844;6.582;2023-11-21T05:34:42;100994.88;;;21.77
65738;BMP280;52478;51.844;6.582;2023-11-21T05:37:09;100994.88;;;21.77
65738;BMP280;52478;51.844;6.582;2023-11-21T05:39:35;101003.25;;;21.77
65738;BMP280;52478;51.844;6.582;2023-11-21T05:42:02;101003.00;;;21.75
65738;BMP280;52478;51.844;6.582;2023-11-21T05:44:29;101007.31;;;21.76
65738;BMP280;52478;51.844;6.582;2023-11-21T05:46:55;100997.41;;;21.75
65738;BMP280;52478;51.844;6.582;2023-11-21T05:49:25;101007.31;;;21.76
65738;BMP280;52478;51.844;6.582;2023-11-21T05:51:53;101000.19;;;21.75
65738;BMP280;52478;51.844;6.582;2023-11-21T05:54:20;101012.88;;;21.76
65738;BMP280;52478;51.844;6.582;2023-11-21T05:56:47;101008.34;;;21.73
65738;BMP280;52478;51.844;6.582;2023-11-21T05:59:14;101016.19;;;21.75
65738;BMP280;52478;51.844;6.582;2023-11-21T06:01:41;101028.84;;;21.76
65738;BMP280;52478;51.844;6.582;2023-11-21T06:04:07;101035.19;;;21.76
65738;BMP280;52478;51.844;6.582;2023-11-21T06:06:35;101033.63;;;21.75
65738;BMP280;52478;51.844;6.582;2023-11-21T06:09:02;101037.19;;;21.76
65738;BMP280;52478;51.844;6.582;2023-11-21T06:11:30;101040.75;;;21.76
65738;BMP280;52478;51.844;6.582;2023-11-21T06:13:57;101039.22;;;21.75
65738;BMP280;52478;51.844;6.582;2023-11-21T06:16:23;101050.34;;;21.75
65738;BMP280;52478;51.844;6.582;2023-11-21T06:18:50;101039.22;;;21.75
65738;BMP280;52478;51.844;6.582;2023-11-21T06:21:16;101048.88;;;21.74
65738;BMP280;52478;51.844;6.582;2023-11-21T06:23:45;101050.34;;;21.75
65738;BMP280;52478;51.844;6.582;2023-11-21T06:26:11;101054.44;;;21.74
65738;BMP280;52478;51.844;6.582;2023-11-21T06:28:38;101061.50;;;21.75
65738;BMP280;52478;51.844;6.582;2023-11-21T06:31:05;101069.88;;;21.75
65738;BMP280;52478;51.844;6.582;2023-11-21T06:33:31;101069.66;;;21.73
65738;BMP280;52478;51.844;6.582;2023-11-21T06:35:58;101073.22;;;21.74
65738;BMP280;52478;51.844;6.582;2023-11-21T06:38:25;101079.28;;;21.72
65738;BMP280;52478;51.844;6.582;2023-11-21T06:40:54;101080.81;;;21.73
65738;BMP280;52478;51.844;6.582;2023-11-21T06:43:21;101082.31;;;21.74
65738;BMP280;52478;51.844;6.582;2023-11-21T06:45:48;101087.88;;;21.74
65738;BMP280;52478;51.844;6.582;2023-11-21T06:48:14;101092.72;;;21.74
65738;BMP280;52478;51.844;6.582;2023-11-21T06:50:41;101090.91;;;21.76
65738;BMP280;52478;51.844;6.582;2023-11-21T06:53:08;101100.50;;;21.75
65738;BMP280;52478;51.844;6.582;2023-11-21T06:55:35;101096.47;;;21.76
65738;BMP280;52478;51.844;6.582;2023-11-21T06:58:03;101104.84;;;21.76
65738;BMP280;52478;51.844;6.582;2023-11-21T07:00:30;101102.06;;;21.76
65738;BMP280;52478;51.844;6.582;2023-11-21T07:02:56;101102.78;;;21.77
65738;BMP280;52478;51.844;6.582;2023-11-21T07:05:23;101099.50;;;21.78
65738;BMP280;52478;51.844;6.582;2023-11-21T07:07:49;101102.06;;;21.76
65738;BMP280;52478;51.844;6.582;2023-11-21T07:10:19;101107.63;;;21.76
65738;BMP280;52478;51.844;6.582;2023-11-21T07:12:46;101114.72;;;21.77
65738;BMP280;52478;51.844;6.582;2023-11-21T07:15:13;101111.94;;;21.77
65738;BMP280;52478;51.844;6.582;2023-11-21T07:17:40;101116.22;;;21.78
65738;BMP280;52478;51.844;6.582;2023-11-21T07:20:07;101110.66;;;21.78
65738;BMP280;52478;51.844;6.582;2023-11-21T07:22:34;101113.44;;;21.78
65738;BMP280;52478;51.844;6.582;2023-11-21T07:25:01;101119.75;;;21.79
65738;BMP280;52478;51.844;6.582;2023-11-21T07:27:27;101115.69;;;21.80
65738;BMP280;52478;51.844;6.582;2023-11-21T07:29:54;101122.00;;;21.80
65738;BMP280;52478;51.844;6.582;2023-11-21T07:32:21;101129.38;;;21.78
65738;BMP280;52478;51.844;6.582;2023-11-21T07:34:48;101141.06;;;21.76
65738;BMP280;52478;51.844;6.582;2023-11-21T07:37:14;101150.69;;;21.75
65738;BMP280;52478;51.844;6.582;2023-11-21T07:39:41;101147.69;;;21.73
65738;BMP280;52478;51.844;6.582;2023-11-21T07:42:09;101155.03;;;21.71
65738;BMP280;52478;51.844;6.582;2023-11-21T07:44:36;101161.38;;;21.71
65738;BMP280;52478;51.844;6.582;2023-11-21T07:47:03;101163.13;;;21.74
65738;BMP280;52478;51.844;6.582;2023-11-21T07:49:31;101179.84;;;21.74
65738;BMP280;52478;51.844;6.582;2023-11-21T07:51:57;101171.50;;;21.74
65738;BMP280;52478;51.844;6.582;2023-11-21T07:54:24;101177.31;;;21.76
65738;BMP280;52478;51.844;6.582;2023-11-21T07:56:50;101178.53;;;21.75
65738;BMP280;52478;51.844;6.582;2023-11-21T07:59:17;101181.34;;;21.75
65738;BMP280;52478;51.844;6.582;2023-11-21T08:01:43;101182.09;;;21.76
65738;BMP280;52478;51.844;6.582;2023-11-21T08:04:10;101182.88;;;21.76
65738;BMP280;52478;51.844;6.582;2023-11-21T08:06:39;101192.75;;;21.77
65738;BMP280;52478;51.844;6.582;2023-11-21T08:09:06;101191.97;;;21.77
65738;BMP280;52478;51.844;6.582;2023-11-21T08:11:33;101198.31;;;21.77
65738;BMP280;52478;51.844;6.582;2023-11-21T08:14:00;101202.38;;;21.76
65738;BMP280;52478;51.844;6.582;2023-11-21T08:16:27;101213.53;;;21.76
65738;BMP280;52478;51.844;6.582;2023-11-21T08:18:53;101212.75;;;21.76
65738;BMP280;52478;51.844;6.582;2023-11-21T08:21:20;101213.53;;;21.76
65738;BMP280;52478;51.844;6.582;2023-11-21T08:23:50;101219.84;;;21.77
65738;BMP280;52478;51.844;6.582;2023-11-21T08:26:19;101221.66;;;21.74
65738;BMP280;52478;51.844;6.582;2023-11-21T08:28:45;101218.34;;;21.76
65738;BMP280;52478;51.844;6.582;2023-11-21T08:31:12;101227.47;;;21.76
65738;BMP280;52478;51.844;6.582;2023-11-21T08:33:39;101233.03;;;21.76
65738;BMP280;52478;51.844;6.582;2023-11-21T08:36:07;101228.19;;;21.77
65738;BMP280;52478;51.844;6.582;2023-11-21T08:38:33;101228.69;;;21.75
65738;BMP280;52478;51.844;6.582;2023-11-21T08:41:05;101234.28;;;21.75
65738;BMP280;52478;51.844;6.582;2023-11-21T08:43:32;101239.84;;;21.75
65738;BMP280;52478;51.844;6.582;2023-11-21T08:45:59;101235.59;;;21.74
65738;BMP280;52478;51.844;6.582;2023-11-21T08:48:25;101246.72;;;21.74
65738;BMP280;52478;51.844;6.582;2023-11-21T08:50:55;101245.44;;;21.75
65738;BMP280;52478;51.844;6.582;2023-11-21T08:53:21;101248.22;;;21.75
65738;BMP280;52478;51.844;6.582;2023-11-21T08:55:48;101251.00;;;21.75
65738;BMP280;52478;51.844;6.582;2023-11-21T08:58:16;101249.50;;;21.74
65738;BMP280;52478;51.844;6.582;2023-11-21T09:00:43;101256.34;;;21.73
65738;BMP280;52478;51.844;6.582;2023-11-21T09:03:09;101266.22;;;21.74
65738;BMP280;52478;51.844;6.582;2023-11-21T09:05:38;101262.69;;;21.74
65738;BMP280;52478;51.844;6.582;2023-11-21T09:08:05;101266.22;;;21.74
65738;BMP280;52478;51.844;6.582;2023-11-21T09:10:32;101267.72;;;21.75
65738;BMP280;52478;51.844;6.582;2023-11-21T09:13:00;101271.81;;;21.74
65738;BMP280;52478;51.844;6.582;2023-11-21T09:15:28;101271.06;;;21.74
65738;BMP280;52478;51.844;6.582;2023-11-21T09:17:55;101282.22;;;21.74
65738;BMP280;52478;51.844;6.582;2023-11-21T09:20:21;101292.81;;;21.75
65738;BMP280;52478;51.844;6.582;2023-11-21T09:22:48;101290.00;;;21.75
65738;BMP280;52478;51.844;6.582;2023-11-21T09:25:15;101294.84;;;21.75
65738;BMP280;52478;51.844;6.582;2023-11-21T09:27:42;101290.56;;;21.74
65738;BMP280;52478;51.844;6.582;2023-11-21T09:30:09;101285.50;;;21.72
65738;BMP280;52478;51.844;6.582;2023-11-21T09:32:37;101303.72;;;21.73
65738;BMP280;52478;51.844;6.582;2023-11-21T09:35:04;101305.25;;;21.74
65738;BMP280;52478;51.844;6.582;2023-11-21T09:37:33;101309.31;;;21.73
65738;BMP280;52478;51.844;6.582;2023-11-21T09:40:01;101309.31;;;21.73
65738;BMP280;52478;51.844;6.582;2023-11-21T09:42:30;101312.09;;;21.73
65738;BMP280;52478;51.844;6.582;2023-11-21T09:45:03;101320.44;;;21.73
65738;BMP280;52478;51.844;6.582;2023-11-21T09:47:34;101320.44;;;21.73
65738;BMP280;52478;51.844;6.582;2023-11-21T09:50:05;101317.41;;;21.71
65738;BMP280;52478;51.844;6.582;2023-11-21T09:52:38;101329.59;;;21.74
65738;BMP280;52478;51.844;6.582;2023-11-21T09:55:07;101331.59;;;21.73
65738;BMP280;52478;51.844;6.582;2023-11-21T09:57:34;101337.16;;;21.73
65738;BMP280;52478;51.844;6.582;2023-11-21T10:00:01;101326.03;;;21.73
65738;BMP280;52478;51.844;6.582;2023-11-21T10:02:30;101332.38;;;21.74
65738;BMP280;52478;51.844;6.582;2023-11-21T10:04:59;101330.81;;;21.73
65738;BMP280;52478;51.844;6.582;2023-11-21T10:07:28;101345.28;;;21.71
65738;BMP280;52478;51.844;6.582;2023-11-21T10:09:57;101353.91;;;21.73
65738;BMP280;52478;51.844;6.582;2023-11-21T10:12:26;101356.69;;;21.73
65738;BMP280;52478;51.844;6.582;2023-11-21T10:14:54;101357.94;;;21.72
65738;BMP280;52478;51.844;6.582;2023-11-21T10:17:24;101362.25;;;21.73
65738;BMP280;52478;51.844;6.582;2023-11-21T10:19:55;101365.03;;;21.73
65738;BMP280;52478;51.844;6.582;2023-11-21T10:22:22;101365.03;;;21.73
65738;BMP280;52478;51.844;6.582;2023-11-21T10:24:51;101368.31;;;21.72
65738;BMP280;52478;51.844;6.582;2023-11-21T10:27:18;101365.03;;;21.73
65738;BMP280;52478;51.844;6.582;2023-11-21T10:29:45;101369.09;;;21.72
65738;BMP280;52478;51.844;6.582;2023-11-21T10:32:12;101370.63;;;21.73
65738;BMP280;52478;51.844;6.582;2023-11-21T10:34:38;101369.09;;;21.72
65738;BMP280;52478;51.844;6.582;2023-11-21T10:37:11;101376.19;;;21.73
65738;BMP280;52478;51.844;6.582;2023-11-21T10:39:38;101370.63;;;21.73
65738;BMP280;52478;51.844;6.582;2023-11-21T10:42:08;101370.63;;;21.73
65738;BMP280;52478;51.844;6.582;2023-11-21T10:44:34;101372.13;;;21.74
65738;BMP280;52478;51.844;6.582;2023-11-21T10:47:01;101381.75;;;21.73
65738;BMP280;52478;51.844;6.582;2023-11-21T10:49:28;101377.69;;;21.74
65738;BMP280;52478;51.844;6.582;2023-11-21T10:51:54;101379.19;;;21.75
65738;BMP280;52478;51.844;6.582;2023-11-21T10:54:22;101384.75;;;21.75
65738;BMP280;52478;51.844;6.582;2023-11-21T10:56:50;101379.19;;;21.75
65738;BMP280;52478;51.844;6.582;2023-11-21T10:59:18;101381.97;;;21.75
65738;BMP280;52478;51.844;6.582;2023-11-21T11:01:47;101381.75;;;21.73
65738;BMP280;52478;51.844;6.582;2023-11-21T11:04:18;101383.28;;;21.74
65738;BMP280;52478;51.844;6.582;2023-11-21T11:06:49;101395.91;;;21.75
65738;BMP280;52478;51.844;6.582;2023-11-21T11:09:17;101393.13;;;21.75
65738;BMP280;52478;51.844;6.582;2023-11-21T11:11:45;101401.50;;;21.75
65738;BMP280;52478;51.844;6.582;2023-11-21T11:14:12;101395.91;;;21.75
65738;BMP280;52478;51.844;6.582;2023-11-21T11:16:41;101401.50;;;21.75
65738;BMP280;52478;51.844;6.582;2023-11-21T11:19:08;101412.63;;;21.75
65738;BMP280;52478;51.844;6.582;2023-11-21T11:21:46;101412.41;;;21.73
65738;BMP280;52478;51.844;6.582;2023-11-21T11:24:33;101409.63;;;21.73
65738;BMP280;52478;51.844;6.582;2023-11-21T11:27:11;101406.84;;;21.73
65738;BMP280;52478;51.844;6.582;2023-11-21T11:29:48;101398.47;;;21.73
65738;BMP280;52478;51.844;6.582;2023-11-21T11:32:22;101392.13;;;21.73
65738;BMP280;52478;51.844;6.582;2023-11-21T11:34:56;101398.47;;;21.73
65738;BMP280;52478;51.844;6.582;2023-11-21T11:37:25;101398.47;;;21.73
65738;BMP280;52478;51.844;6.582;2023-11-21T11:39:52;101388.84;;;21.74
65738;BMP280;52478;51.844;6.582;2023-11-21T11:42:21;101397.72;;;21.73
65738;BMP280;52478;51.844;6.582;2023-11-21T11:44:50;101399.75;;;21.72
65738;BMP280;52478;51.844;6.582;2023-11-21T11:47:24;101410.16;;;21.66
65738;BMP280;52478;51.844;6.582;2023-11-21T11:50:00;101421.53;;;21.68
65738;BMP280;52478;51.844;6.582;2023-11-21T11:52:37;101428.88;;;21.71
65738;BMP280;52478;51.844;6.582;2023-11-21T11:55:06;101438.75;;;21.72
65738;BMP280;52478;51.844;6.582;2023-11-21T11:57:35;101429.41;;;21.70
65738;BMP280;52478;51.844;6.582;2023-11-21T12:00:09;101441.81;;;21.74
65738;BMP280;52478;51.844;6.582;2023-11-21T12:02:37;101446.06;;;21.75
65738;BMP280;52478;51.844;6.582;2023-11-21T12:05:08;101453.94;;;21.77
65738;BMP280;52478;51.844;6.582;2023-11-21T12:07:49;101448.38;;;21.77
65738;BMP280;52478;51.844;6.582;2023-11-21T12:10:19;101448.88;;;21.75
65738;BMP280;52478;51.844;6.582;2023-11-21T12:12:48;101451.66;;;21.75
65738;BMP280;52478;51.844;6.582;2023-11-21T12:15:16;101467.38;;;21.78
65738;BMP280;52478;51.844;6.582;2023-11-21T12:17:44;101468.66;;;21.77
65738;BMP280;52478;51.844;6.582;2023-11-21T12:20:11;101472.72;;;21.76
65738;BMP280;52478;51.844;6.582;2023-11-21T12:22:43;101465.88;;;21.77
65738;BMP280;52478;51.844;6.582;2023-11-21T12:25:10;101469.91;;;21.76
65738;BMP280;52478;51.844;6.582;2023-11-21T12:27:42;101474.97;;;21.78
65738;BMP280;52478;51.844;6.582;2023-11-21T12:30:09;101472.19;;;21.78
65738;BMP280;52478;51.844;6.582;2023-11-21T12:32:39;101479.03;;;21.77
65738;BMP280;52478;51.844;6.582;2023-11-21T12:35:08;101479.28;;;21.79
65738;BMP280;52478;51.844;6.582;2023-11-21T12:37:35;101481.59;;;21.69
65738;BMP280;52478;51.844;6.582;2023-11-21T12:40:02;101486.16;;;21.72
65738;BMP280;52478;51.844;6.582;2023-11-21T12:42:29;101488.94;;;21.72
65738;BMP280;52478;51.844;6.582;2023-11-21T12:45:07;101482.31;;;21.75
65738;BMP280;52478;51.844;6.582;2023-11-21T12:47:39;101485.88;;;21.76
65738;BMP280;52478;51.844;6.582;2023-11-21T12:50:08;101481.06;;;21.76
65738;BMP280;52478;51.844;6.582;2023-11-21T12:52:41;101487.38;;;21.77
65738;BMP280;52478;51.844;6.582;2023-11-21T12:55:09;101495.00;;;21.76
65738;BMP280;52478;51.844;6.582;2023-11-21T12:57:41;101488.16;;;21.77
65738;BMP280;52478;51.844;6.582;2023-11-21T13:00:09;101495.25;;;21.78
65738;BMP280;52478;51.844;6.582;2023-11-21T13:02:53;101504.59;;;21.75
65738;BMP280;52478;51.844;6.582;2023-11-21T13:05:28;101505.09;;;21.79
65738;BMP280;52478;51.844;6.582;2023-11-21T13:07:55;101514.97;;;21.80
65738;BMP280;52478;51.844;6.582;2023-11-21T13:10:23;101514.97;;;21.80
65738;BMP280;52478;51.844;6.582;2023-11-21T13:12:52;101516.25;;;21.79
65738;BMP280;52478;51.844;6.582;2023-11-21T13:15:20;101527.41;;;21.79
65738;BMP280;52478;51.844;6.582;2023-11-21T13:17:46;101531.97;;;21.77
65738;BMP280;52478;51.844;6.582;2023-11-21T13:20:13;101530.97;;;21.80
65738;BMP280;52478;51.844;6.582;2023-11-21T13:22:47;101535.53;;;21.77
65738;BMP280;52478;51.844;6.582;2023-11-21T13:25:14;101526.41;;;21.77
65738;BMP280;52478;51.844;6.582;2023-11-21T13:27:43;101541.13;;;21.77
65738;BMP280;52478;51.844;6.582;2023-11-21T13:30:11;101535.53;;;21.77
65738;BMP280;52478;51.844;6.582;2023-11-21T13:32:40;101534.28;;;21.78
65738;BMP280;52478;51.844;6.582;2023-11-21T13:35:07;101534.28;;;21.78
65738;BMP280;52478;51.844;6.582;2023-11-21T13:37:40;101535.53;;;21.77
65738;BMP280;52478;51.844;6.582;2023-11-21T13:40:09;101542.63;;;21.78
65738;BMP280;52478;51.844;6.582;2023-11-21T13:42:40;101542.63;;;21.78
65738;BMP280;52478;51.844;6.582;2023-11-21T13:45:07;101544.66;;;21.78
65738;BMP280;52478;51.844;6.582;2023-11-21T13:47:34;101551.00;;;21.78
65738;BMP280;52478;51.844;6.582;2023-11-21T13:50:04;101543.91;;;21.77
65738;BMP280;52478;51.844;6.582;2023-11-21T13:52:33;101544.66;;;21.78
65738;BMP280;52478;51.844;6.582;2023-11-21T13:55:01;101556.56;;;21.78
65738;BMP280;52478;51.844;6.582;2023-11-21T13:57:33;101549.47;;;21.77
65738;BMP280;52478;51.844;6.582;2023-11-21T13:59:59;101560.63;;;21.77